createdAt,value
2022-09-26T00:01:42.951Z,12.87
2022-09-26T00:04:23.025Z,13.05
2022-09-26T00:06:52.416Z,12.87
2022-09-26T00:09:19.593Z,12.98
2022-09-26T00:11:46.547Z,13.19
2022-09-26T00:14:18.157Z,13.30
2022-09-26T00:16:45.238Z,13.44
2022-09-26T00:19:12.120Z,13.60
2022-09-26T00:21:39.522Z,13.66
2022-09-26T00:24:06.694Z,13.68
2022-09-26T00:26:35.991Z,13.47
2022-09-26T00:29:07.447Z,13.28
2022-09-26T00:31:37.918Z,13.29
2022-09-26T00:34:04.865Z,13.32
2022-09-26T00:36:37.904Z,13.60
2022-09-26T00:39:09.977Z,13.55
2022-09-26T00:41:37.630Z,13.36
2022-09-26T00:44:42.724Z,13.28
2022-09-26T00:47:36.625Z,12.74
2022-09-26T00:50:23.292Z,12.80
2022-09-26T00:52:57.064Z,12.69
2022-09-26T00:55:30.837Z,12.54
2022-09-26T00:58:04.624Z,12.18
2022-09-26T01:00:31.457Z,12.33
2022-09-26T01:02:58.702Z,12.21
2022-09-26T01:05:25.607Z,12.17
2022-09-26T01:07:55.507Z,12.17
2022-09-26T01:10:22.674Z,12.08
2022-09-26T01:12:49.450Z,12.00
2022-09-26T01:15:16.345Z,11.92
2022-09-26T01:17:44.630Z,11.85
2022-09-26T01:20:25.372Z,11.48
2022-09-26T01:23:16.481Z,12.00
2022-09-26T01:25:49.051Z,12.00
2022-09-26T01:28:53.309Z,12.06
2022-09-26T01:32:28.822Z,12.17
2022-09-26T01:35:09.472Z,12.14
2022-09-26T01:38:11.767Z,12.29
2022-09-26T01:41:14.765Z,12.15
2022-09-26T01:43:50.530Z,11.96
2022-09-26T01:46:34.760Z,11.67
2022-09-26T01:49:22.978Z,11.53
2022-09-26T01:51:49.681Z,11.72
2022-09-26T01:54:24.970Z,11.72
2022-09-26T01:56:54.557Z,11.83
2022-09-26T01:59:30.663Z,11.78
2022-09-26T02:02:11.683Z,11.80
2022-09-26T02:04:43.053Z,12.00
2022-09-26T02:07:16.859Z,11.89
2022-09-26T02:10:13.691Z,11.87
2022-09-26T02:12:43.761Z,11.84
2022-09-26T02:15:15.726Z,11.99
2022-09-26T02:17:47.736Z,12.07
2022-09-26T02:20:37.661Z,12.29
2022-09-26T02:23:04.843Z,12.27
2022-09-26T02:25:33.013Z,12.30
2022-09-26T02:28:00.297Z,12.04
2022-09-26T02:30:27.205Z,12.06
2022-09-26T02:32:53.907Z,12.21
2022-09-26T02:35:39.714Z,12.22
2022-09-26T02:38:07.118Z,12.24
2022-09-26T02:41:12.199Z,11.97
2022-09-26T02:43:54.031Z,11.90
2022-09-26T02:46:49.250Z,11.80
2022-09-26T02:49:49.483Z,11.66
2022-09-26T02:52:27.258Z,11.67
2022-09-26T02:55:19.856Z,11.86
2022-09-26T02:58:05.678Z,11.94
2022-09-26T03:00:56.500Z,11.47
2022-09-26T03:03:32.077Z,11.79
2022-09-26T03:05:59.479Z,11.72
2022-09-26T03:08:48.289Z,11.70
2022-09-26T03:11:21.353Z,11.79
2022-09-26T03:13:52.265Z,11.67
2022-09-26T03:16:21.250Z,11.11
2022-09-26T03:19:04.535Z,11.09
2022-09-26T03:21:36.178Z,10.85
2022-09-26T03:24:03.957Z,10.79
2022-09-26T03:26:32.812Z,10.47
2022-09-26T03:28:59.741Z,10.49
2022-09-26T03:31:27.286Z,10.68
2022-09-26T03:33:54.616Z,10.73
2022-09-26T03:36:24.671Z,10.47
2022-09-26T03:38:51.696Z,10.50
2022-09-26T03:41:18.609Z,10.63
2022-09-26T03:43:45.496Z,10.43
2022-09-26T03:46:12.793Z,10.35
2022-09-26T03:48:40.496Z,10.50
2022-09-26T03:51:13.399Z,10.66
2022-09-26T03:53:43.214Z,10.79
2022-09-26T03:56:12.644Z,11.01
2022-09-26T03:58:39.693Z,11.09
2022-09-26T04:01:09.622Z,11.08
2022-09-26T04:03:37.738Z,11.12
2022-09-26T04:06:05.445Z,11.18
2022-09-26T04:08:32.189Z,11.35
2022-09-26T04:11:08.210Z,11.65
2022-09-26T04:13:52.882Z,11.80
2022-09-26T04:16:22.780Z,11.74
2022-09-26T04:18:50.492Z,11.72
2022-09-26T04:21:17.360Z,11.80
2022-09-26T04:23:44.894Z,11.84
2022-09-26T04:26:20.109Z,11.87
2022-09-26T04:28:51.164Z,11.86
2022-09-26T04:31:18.322Z,12.08
2022-09-26T04:33:45.291Z,12.07
2022-09-26T04:36:14.947Z,12.08
2022-09-26T04:38:41.865Z,12.25
2022-09-26T04:41:17.601Z,12.50
2022-09-26T04:43:44.873Z,12.28
2022-09-26T04:46:21.613Z,12.54
2022-09-26T04:48:54.789Z,12.64
2022-09-26T04:51:23.408Z,12.46
2022-09-26T04:53:50.656Z,12.67
2022-09-26T04:56:19.691Z,12.77
2022-09-26T04:58:46.932Z,12.92
2022-09-26T05:01:16.401Z,12.92
2022-09-26T05:03:44.325Z,13.02
2022-09-26T05:06:12.352Z,13.20
2022-09-26T05:08:46.519Z,12.98
2022-09-26T05:11:15.881Z,13.03
2022-09-26T05:13:44.008Z,13.13
2022-09-26T05:16:14.456Z,13.14
2022-09-26T05:18:41.900Z,13.00
2022-09-26T05:21:09.097Z,13.23
2022-09-26T05:23:55.393Z,13.36
2022-09-26T05:26:41.962Z,13.39
2022-09-26T05:29:09.808Z,13.31
2022-09-26T05:31:40.079Z,13.13
2022-09-26T05:34:08.763Z,13.21
2022-09-26T05:36:35.473Z,13.04
2022-09-26T05:39:02.759Z,13.02
2022-09-26T05:41:31.397Z,12.98
2022-09-26T05:43:58.509Z,12.93
2022-09-26T05:46:25.968Z,13.13
2022-09-26T05:48:53.488Z,13.40
2022-09-26T05:51:21.886Z,13.76
2022-09-26T05:53:49.879Z,13.92
2022-09-26T05:56:19.790Z,14.14
2022-09-26T05:58:47.396Z,14.12
2022-09-26T06:01:16.662Z,14.20
2022-09-26T06:03:45.157Z,14.03
2022-09-26T06:06:14.680Z,14.08
2022-09-26T06:08:42.228Z,14.59
2022-09-26T06:11:14.172Z,15.21
2022-09-26T06:13:46.811Z,15.89
2022-09-26T06:16:16.738Z,15.92
2022-09-26T06:18:43.412Z,15.91
2022-09-26T06:21:12.493Z,15.48
2022-09-26T06:23:39.752Z,15.60
2022-09-26T06:26:08.552Z,16.12
2022-09-26T06:28:36.963Z,16.27
2022-09-26T06:31:14.902Z,15.93
2022-09-26T06:33:42.384Z,16.02
2022-09-26T06:36:11.534Z,16.40
2022-09-26T06:38:38.921Z,17.00
2022-09-26T06:41:07.520Z,17.05
2022-09-26T06:43:34.839Z,17.04
2022-09-26T06:46:01.737Z,16.68
2022-09-26T06:48:28.750Z,16.92
2022-09-26T06:50:57.874Z,16.68
2022-09-26T06:53:24.614Z,16.71
2022-09-26T06:55:51.604Z,17.27
2022-09-26T06:58:18.837Z,17.70
2022-09-26T07:00:46.005Z,17.50
2022-09-26T07:03:16.196Z,17.50
2022-09-26T07:05:45.354Z,18.20
2022-09-26T07:08:12.047Z,18.27
2022-09-26T07:10:38.788Z,18.22
2022-09-26T07:13:07.863Z,18.08
2022-09-26T07:15:36.228Z,17.83
2022-09-26T07:18:06.578Z,17.96
2022-09-26T07:20:37.265Z,18.02
2022-09-26T07:23:06.374Z,18.43
2022-09-26T07:25:33.550Z,18.69
2022-09-26T07:28:01.328Z,18.44
2022-09-26T07:30:28.595Z,18.32
2022-09-26T07:33:03.819Z,18.32
2022-09-26T07:35:35.794Z,18.57
2022-09-26T07:38:03.846Z,19.13
2022-09-26T07:40:30.804Z,19.10
2022-09-26T07:43:19.138Z,18.91
2022-09-26T07:46:05.688Z,19.05
2022-09-26T07:48:50.807Z,19.95
2022-09-26T07:51:17.551Z,20.41
2022-09-26T07:53:44.297Z,21.08
2022-09-26T07:56:11.154Z,21.70
2022-09-26T07:58:42.011Z,20.89
2022-09-26T08:01:14.405Z,20.80
2022-09-26T08:03:42.876Z,20.77
2022-09-26T08:06:10.078Z,20.95
2022-09-26T08:08:37.454Z,21.11
2022-09-26T08:11:05.711Z,21.83
2022-09-26T08:13:33.367Z,22.60
2022-09-26T08:16:05.824Z,22.64
2022-09-26T08:18:33.762Z,22.85
2022-09-26T08:21:05.959Z,22.32
2022-09-26T08:23:36.093Z,22.13
2022-09-26T08:26:04.446Z,23.14
2022-09-26T08:28:31.158Z,23.30
2022-09-26T08:34:43.870Z,23.22
2022-09-26T08:37:10.933Z,24.07
2022-09-26T08:39:38.709Z,23.70
2022-09-26T08:42:14.937Z,23.98
2022-09-26T08:45:37.078Z,24.34
2022-09-26T08:48:20.931Z,24.71
2022-09-26T08:50:47.536Z,24.30
2022-09-26T08:53:22.932Z,24.45
2022-09-26T08:55:53.711Z,23.84
2022-09-26T08:58:29.360Z,24.31
2022-09-26T09:01:02.939Z,24.59
2022-09-26T09:03:58.866Z,24.15
2022-09-26T09:06:28.414Z,24.10
2022-09-26T09:08:56.758Z,25.15
2022-09-26T09:11:41.735Z,25.51
2022-09-26T09:14:26.578Z,24.73
2022-09-26T09:17:05.447Z,24.69
2022-09-26T09:20:03.302Z,25.26
2022-09-26T09:22:48.123Z,25.84
2022-09-26T09:25:28.645Z,25.54
2022-09-26T09:28:08.847Z,25.45
2022-09-26T09:30:41.622Z,25.95
2022-09-26T09:33:22.420Z,26.34
2022-09-26T09:35:56.717Z,26.57
2022-09-26T09:38:30.471Z,27.30
2022-09-26T09:41:03.109Z,27.21
2022-09-26T09:43:44.044Z,26.48
2022-09-26T09:46:30.546Z,25.95
2022-09-26T09:49:24.273Z,25.73
2022-09-26T09:52:29.381Z,25.86
2022-09-26T09:55:34.640Z,24.89
2022-09-26T09:58:07.675Z,25.37
2022-09-26T10:00:49.033Z,25.44
2022-09-26T10:03:26.962Z,26.02
2022-09-26T10:06:00.895Z,26.22
2022-09-26T10:08:31.450Z,26.42
2022-09-26T10:11:12.542Z,26.87
2022-09-26T10:13:42.747Z,27.72
2022-09-26T10:16:14.583Z,28.64
2022-09-26T10:19:03.925Z,28.38
2022-09-26T10:21:34.459Z,27.78
2022-09-26T10:24:04.884Z,27.70
2022-09-26T10:26:35.199Z,28.32
2022-09-26T10:29:08.295Z,27.63
2022-09-26T10:31:42.882Z,27.20
2022-09-26T10:34:25.361Z,26.96
2022-09-26T10:36:52.408Z,27.32
2022-09-26T10:39:41.661Z,28.22
2022-09-26T10:42:20.778Z,28.58
2022-09-26T10:44:48.615Z,28.55
2022-09-26T10:47:23.367Z,27.99
2022-09-26T10:49:52.730Z,27.41
2022-09-26T10:52:34.627Z,28.48
2022-09-26T10:55:15.468Z,28.46
2022-09-26T10:57:54.759Z,27.34
2022-09-26T11:00:37.553Z,28.55
2022-09-26T11:03:13.330Z,29.27
2022-09-26T11:05:58.461Z,29.35
2022-09-26T11:08:27.890Z,29.50
2022-09-26T11:10:57.103Z,29.29
2022-09-26T11:13:26.052Z,28.87
2022-09-26T11:16:01.693Z,29.30
2022-09-26T11:18:50.519Z,29.72
2022-09-26T11:21:44.754Z,29.53
2022-09-26T11:24:37.321Z,30.24
2022-09-26T11:27:28.772Z,30.49
2022-09-26T11:30:09.193Z,30.18
2022-09-26T11:32:41.580Z,29.58
2022-09-26T11:35:16.637Z,29.31
2022-09-26T11:38:18.942Z,29.14
2022-09-26T11:40:46.350Z,28.12
2022-09-26T11:43:51.791Z,28.63
2022-09-26T11:47:01.981Z,28.19
2022-09-26T11:49:48.806Z,27.66
2022-09-26T11:52:29.753Z,27.49
2022-09-26T11:55:17.976Z,27.12
2022-09-26T11:58:03.479Z,27.15
2022-09-26T12:00:58.341Z,27.40
2022-09-26T12:03:43.574Z,27.99
2022-09-26T12:06:27.527Z,28.41
2022-09-26T12:09:18.696Z,28.22
2022-09-26T12:11:54.455Z,28.05
2022-09-26T12:14:39.402Z,27.79
2022-09-26T12:17:35.314Z,27.66
2022-09-26T12:20:08.199Z,27.89
2022-09-26T12:22:43.198Z,28.82
2022-09-26T12:25:20.158Z,29.58
2022-09-26T12:28:10.754Z,29.65
2022-09-26T12:30:54.301Z,29.85
2022-09-26T12:34:04.609Z,29.69
2022-09-26T12:36:58.642Z,29.34
2022-09-26T12:39:36.767Z,29.49
2022-09-26T12:42:40.348Z,29.65
2022-09-26T12:45:42.378Z,29.62
2022-09-26T12:48:41.460Z,29.90
2022-09-26T12:51:16.367Z,29.81
2022-09-26T12:54:17.010Z,29.43
2022-09-26T12:56:56.315Z,29.08
2022-09-26T12:59:36.456Z,29.28
2022-09-26T13:02:33.653Z,28.87
2022-09-26T13:05:37.264Z,28.75
2022-09-26T13:08:25.099Z,28.53
2022-09-26T13:10:57.379Z,28.44
2022-09-26T13:13:39.195Z,28.02
2022-09-26T13:16:43.452Z,28.12
2022-09-26T13:20:07.109Z,28.42
2022-09-26T13:22:58.137Z,28.47
2022-09-26T13:25:34.104Z,28.33
2022-09-26T13:28:19.700Z,28.59
2022-09-26T13:30:53.722Z,28.73
2022-09-26T13:33:26.857Z,29.56
2022-09-26T13:35:56.493Z,29.67
2022-09-26T13:38:53.271Z,29.58
2022-09-26T13:41:44.325Z,29.81
2022-09-26T13:44:40.092Z,30.07
2022-09-26T13:47:35.689Z,29.63
2022-09-26T13:50:12.749Z,29.22
2022-09-26T13:52:53.016Z,28.68
2022-09-26T13:55:21.942Z,28.42
2022-09-26T13:58:07.152Z,28.19
2022-09-26T14:00:40.892Z,27.88
2022-09-26T14:03:10.393Z,27.94
2022-09-26T14:05:46.763Z,27.72
2022-09-26T14:08:44.831Z,27.09
2022-09-26T14:11:51.644Z,26.99
2022-09-26T14:14:37.736Z,26.99
2022-09-26T14:17:50.703Z,27.12
2022-09-26T14:20:24.577Z,27.42
2022-09-26T14:22:54.122Z,27.32
2022-09-26T14:25:45.645Z,27.17
2022-09-26T14:28:47.749Z,27.10
2022-09-26T14:31:26.304Z,27.25
2022-09-26T14:34:18.659Z,27.36
2022-09-26T14:36:47.155Z,27.35
2022-09-26T14:39:28.235Z,27.34
2022-09-26T14:41:56.632Z,27.20
2022-09-26T14:44:23.676Z,27.22
2022-09-26T14:46:53.374Z,27.04
2022-09-26T14:49:26.705Z,26.89
2022-09-26T14:52:01.162Z,26.71
2022-09-26T14:54:36.522Z,26.67
2022-09-26T14:57:06.326Z,26.77
2022-09-26T14:59:36.905Z,26.93
2022-09-26T15:02:27.077Z,27.01
2022-09-26T15:05:04.086Z,26.74
2022-09-26T15:07:50.648Z,26.95
2022-09-26T15:10:21.874Z,26.91
2022-09-26T15:13:04.559Z,26.69
2022-09-26T15:15:50.122Z,26.83
2022-09-26T15:18:35.761Z,26.77
2022-09-26T15:21:48.305Z,26.80
2022-09-26T15:24:29.177Z,26.25
2022-09-26T15:26:58.689Z,26.29
2022-09-26T15:29:27.309Z,26.26
2022-09-26T15:31:56.193Z,25.96
2022-09-26T15:34:24.611Z,25.86
2022-09-26T15:36:59.512Z,25.76
2022-09-26T15:39:38.144Z,25.75
2022-09-26T15:42:29.550Z,25.68
2022-09-26T15:45:01.668Z,25.61
2022-09-26T15:47:31.917Z,25.86
2022-09-26T15:50:14.502Z,25.96
2022-09-26T15:52:47.106Z,25.38
2022-09-26T15:55:21.540Z,25.03
2022-09-26T15:57:52.355Z,25.09
2022-09-26T16:00:19.771Z,25.23
2022-09-26T16:02:47.241Z,24.99
2022-09-26T16:05:14.863Z,24.93
2022-09-26T16:07:49.093Z,24.71
2022-09-26T16:10:28.507Z,24.60
2022-09-26T16:12:57.227Z,24.42
2022-09-26T16:15:31.268Z,24.25
2022-09-26T16:17:58.943Z,24.45
2022-09-26T16:20:31.229Z,24.47
2022-09-26T16:23:05.248Z,24.52
2022-09-26T16:25:53.097Z,24.40
2022-09-26T16:28:42.713Z,24.45
2022-09-26T16:31:17.907Z,24.28
2022-09-26T16:33:51.383Z,24.08
2022-09-26T16:36:33.195Z,23.97
2022-09-26T16:39:06.115Z,24.17
2022-09-26T16:42:00.567Z,24.40
2022-09-26T16:44:35.911Z,24.37
2022-09-26T16:47:06.767Z,24.32
2022-09-26T16:49:47.613Z,23.89
2022-09-26T16:52:29.051Z,24.02
2022-09-26T16:54:58.064Z,23.76
2022-09-26T16:57:32.086Z,23.62
2022-09-26T17:00:41.814Z,23.63
2022-09-26T17:03:27.884Z,23.75
2022-09-26T17:05:56.885Z,23.74
2022-09-26T17:08:26.597Z,23.86
2022-09-26T17:11:02.156Z,23.95
2022-09-26T17:13:33.096Z,23.95
2022-09-26T17:16:03.693Z,23.98
2022-09-26T17:18:33.159Z,23.81
2022-09-26T17:21:00.728Z,23.80
2022-09-26T17:23:39.778Z,23.75
2022-09-26T17:26:09.859Z,23.64
2022-09-26T17:28:42.770Z,23.56
2022-09-26T17:31:19.194Z,23.36
2022-09-26T17:33:47.935Z,23.17
2022-09-26T17:36:21.733Z,23.23
2022-09-26T17:38:48.508Z,23.07
2022-09-26T17:41:15.786Z,22.82
2022-09-26T17:43:42.810Z,22.90
2022-09-26T17:46:15.881Z,22.50
2022-09-26T17:48:44.384Z,22.30
2022-09-26T17:51:15.068Z,22.26
2022-09-26T17:53:50.555Z,22.27
2022-09-26T17:56:20.994Z,22.03
2022-09-26T17:58:49.289Z,21.96
2022-09-26T18:01:25.524Z,21.77
2022-09-26T18:03:57.662Z,21.81
2022-09-26T18:06:31.749Z,21.64
2022-09-26T18:09:05.398Z,21.28
2022-09-26T18:11:34.643Z,21.29
2022-09-26T18:14:05.575Z,21.31
2022-09-26T18:16:32.616Z,21.20
2022-09-26T18:19:06.742Z,21.18
2022-09-26T18:21:34.598Z,21.22
2022-09-26T18:24:03.233Z,21.00
2022-09-26T18:26:38.303Z,20.75
2022-09-26T18:29:08.359Z,20.94
2022-09-26T18:31:41.483Z,20.91
2022-09-26T18:34:19.022Z,20.82
2022-09-26T18:36:46.585Z,20.86
2022-09-26T18:39:13.635Z,20.60
2022-09-26T18:41:40.814Z,20.53
2022-09-26T18:44:16.958Z,20.26
2022-09-26T18:46:47.260Z,20.67
2022-09-26T18:49:15.294Z,20.66
2022-09-26T18:51:43.080Z,20.73
2022-09-26T18:54:15.227Z,20.59
2022-09-26T18:57:01.261Z,20.59
2022-09-26T18:59:31.246Z,20.61
2022-09-26T19:02:00.331Z,20.69
2022-09-26T19:04:28.585Z,20.61
2022-09-26T19:07:06.983Z,20.62
2022-09-26T19:09:35.747Z,20.61
2022-09-26T19:12:04.315Z,20.55
2022-09-26T19:14:32.339Z,20.55
2022-09-26T19:16:59.670Z,20.40
2022-09-26T19:19:28.720Z,20.51
2022-09-26T19:22:03.400Z,20.49
2022-09-26T19:24:51.242Z,20.43
2022-09-26T19:27:25.920Z,20.34
2022-09-26T19:29:59.076Z,20.19
2022-09-26T19:32:36.051Z,20.33
2022-09-26T19:35:10.324Z,20.22
2022-09-26T19:37:37.293Z,20.17
2022-09-26T19:40:13.484Z,20.04
2022-09-26T19:42:42.431Z,20.11
2022-09-26T19:45:11.042Z,20.09
2022-09-26T19:47:39.624Z,20.11
2022-09-26T19:50:12.917Z,19.94
2022-09-26T19:52:39.852Z,20.00
2022-09-26T19:55:20.766Z,19.93
2022-09-26T19:57:47.626Z,19.86
2022-09-26T20:00:14.886Z,19.71
2022-09-26T20:02:41.805Z,19.66
2022-09-26T20:05:20.841Z,19.76
2022-09-26T20:07:47.957Z,19.77
2022-09-26T20:10:17.249Z,19.66
2022-09-26T20:12:45.174Z,19.74
2022-09-26T20:15:13.610Z,19.59
2022-09-26T20:17:44.733Z,19.68
2022-09-26T20:20:21.706Z,19.53
2022-09-26T20:22:48.987Z,19.53
2022-09-26T20:25:26.442Z,19.53
2022-09-26T20:27:53.695Z,19.51
2022-09-26T20:30:39.564Z,19.59
2022-09-26T20:33:06.507Z,19.73
2022-09-26T20:35:36.876Z,19.56
2022-09-26T20:38:11.034Z,19.66
2022-09-26T20:40:39.178Z,19.56
2022-09-26T20:43:11.566Z,19.64
2022-09-26T20:45:40.918Z,19.59
2022-09-26T20:48:16.437Z,19.50
2022-09-26T20:50:43.125Z,19.48
2022-09-26T20:53:17.803Z,19.41
2022-09-26T20:55:45.386Z,19.41
2022-09-26T20:58:12.262Z,19.20
2022-09-26T21:00:40.301Z,19.36
2022-09-26T21:03:07.536Z,19.42
2022-09-26T21:05:34.633Z,19.45
2022-09-26T21:08:09.892Z,19.30
2022-09-26T21:10:36.809Z,19.37
2022-09-26T21:13:03.615Z,19.44
2022-09-26T21:15:32.562Z,19.42
2022-09-26T21:18:00.757Z,19.39
2022-09-26T21:20:30.733Z,19.37
2022-09-26T21:22:59.713Z,19.50
2022-09-26T21:25:29.653Z,19.53
2022-09-26T21:28:02.173Z,19.45
2022-09-26T21:30:30.042Z,19.45
2022-09-26T21:32:58.972Z,19.41
2022-09-26T21:35:30.198Z,19.50
2022-09-26T21:37:59.033Z,19.49
2022-09-26T21:40:28.603Z,19.45
2022-09-26T21:43:03.883Z,19.51
2022-09-26T21:45:30.511Z,19.46
2022-09-26T21:47:57.856Z,19.49
2022-09-26T21:50:28.756Z,19.30
2022-09-26T21:53:02.141Z,19.28
2022-09-26T21:55:33.740Z,19.37
2022-09-26T21:58:07.806Z,19.46
2022-09-26T22:00:40.545Z,19.47
2022-09-26T22:03:07.378Z,19.54
2022-09-26T22:05:34.096Z,19.45
2022-09-26T22:08:01.958Z,19.47
2022-09-26T22:10:29.452Z,19.59
2022-09-26T22:12:56.252Z,19.62
2022-09-26T22:15:22.943Z,19.67
2022-09-26T22:17:49.783Z,19.66
2022-09-26T22:20:16.608Z,19.61
2022-09-26T22:22:43.433Z,19.46
2022-09-26T22:25:10.423Z,19.52
2022-09-26T22:27:37.250Z,19.35
2022-09-26T22:30:05.160Z,19.34
2022-09-26T22:32:32.159Z,19.25
2022-09-26T22:34:58.811Z,19.14
2022-09-26T22:37:25.601Z,19.18
2022-09-26T22:39:53.431Z,19.15
2022-09-26T22:42:20.132Z,19.19
2022-09-26T22:44:46.868Z,19.18
2022-09-26T22:47:13.536Z,19.11
2022-09-26T22:49:40.223Z,19.23
2022-09-26T22:52:06.959Z,19.06
2022-09-26T22:54:33.606Z,19.07
2022-09-26T22:57:00.282Z,19.01
2022-09-26T22:59:27.260Z,18.95
2022-09-26T23:01:56.865Z,18.95
2022-09-26T23:04:23.558Z,18.88
2022-09-26T23:06:50.435Z,19.06
2022-09-26T23:09:17.089Z,19.02
2022-09-26T23:11:43.781Z,18.93
2022-09-26T23:14:10.603Z,18.77
2022-09-26T23:16:38.528Z,18.79
2022-09-26T23:19:05.383Z,18.64
2022-09-26T23:21:32.066Z,18.71
2022-09-26T23:23:58.858Z,18.73
2022-09-26T23:26:31.277Z,18.80
2022-09-26T23:28:58.626Z,18.79
2022-09-26T23:31:27.063Z,18.75
2022-09-26T23:33:54.341Z,18.74
2022-09-26T23:36:21.628Z,18.77
2022-09-26T23:38:48.334Z,18.68
2022-09-26T23:41:16.869Z,18.63
2022-09-26T23:43:44.082Z,18.65
2022-09-26T23:46:11.201Z,18.60
2022-09-26T23:48:39.431Z,18.56
2022-09-26T23:51:06.767Z,18.46
2022-09-26T23:53:34.086Z,18.55
2022-09-26T23:56:08.993Z,18.60
2022-09-26T23:58:37.205Z,18.60
